sensor_id;sensor_type;location;lat;lon;timestamp;P1;durP1;ratioP1;P2;durP2;ratioP2
673;SDS011;319;48.764;9.174;2023-07-13T00:01:12;10.50;;;10.20;;
673;SDS011;319;48.764;9.174;2023-07-13T00:03:39;10.10;;;9.80;;
673;SDS011;319;48.764;9.174;2023-07-13T00:06:07;9.80;;;9.60;;
673;SDS011;319;48.764;9.174;2023-07-13T00:08:35;9.90;;;9.70;;
673;SDS011;319;48.764;9.174;2023-07-13T00:11:02;10.20;;;9.90;;
673;SDS011;319;48.764;9.174;2023-07-13T00:13:31;10.20;;;9.90;;
673;SDS011;319;48.764;9.174;2023-07-13T00:15:58;10.17;;;9.87;;
673;SDS011;319;48.764;9.174;2023-07-13T00:18:26;2.90;;;2.80;;
673;SDS011;319;48.764;9.174;2023-07-13T00:20:55;10.70;;;10.40;;
673;SDS011;319;48.764;9.174;2023-07-13T00:23:30;9.80;;;9.60;;
673;SDS011;319;48.764;9.174;2023-07-13T00:25:59;10.07;;;9.77;;
673;SDS011;319;48.764;9.174;2023-07-13T00:28:25;9.63;;;9.43;;
673;SDS011;319;48.764;9.174;2023-07-13T00:30:54;9.63;;;9.43;;
673;SDS011;319;48.764;9.174;2023-07-13T00:33:21;10.10;;;9.80;;
673;SDS011;319;48.764;9.174;2023-07-13T00:35:49;10.23;;;9.93;;
673;SDS011;319;48.764;9.174;2023-07-13T00:38:16;10.40;;;10.10;;
673;SDS011;319;48.764;9.174;2023-07-13T00:40:43;10.13;;;9.83;;
673;SDS011;319;48.764;9.174;2023-07-13T00:43:12;10.50;;;10.20;;
673;SDS011;319;48.764;9.174;2023-07-13T00:48:42;9.87;;;9.67;;
673;SDS011;319;48.764;9.174;2023-07-13T00:51:12;9.27;;;9.07;;
673;SDS011;319;48.764;9.174;2023-07-13T00:53:40;9.63;;;9.43;;
673;SDS011;319;48.764;9.174;2023-07-13T00:56:07;9.40;;;9.20;;
673;SDS011;319;48.764;9.174;2023-07-13T00:58:35;9.30;;;9.10;;
673;SDS011;319;48.764;9.174;2023-07-13T01:01:02;9.20;;;9.00;;
673;SDS011;319;48.764;9.174;2023-07-13T01:03:30;9.23;;;9.03;;
673;SDS011;319;48.764;9.174;2023-07-13T01:05:57;9.90;;;9.70;;
673;SDS011;319;48.764;9.174;2023-07-13T01:08:24;10.03;;;9.73;;
673;SDS011;319;48.764;9.174;2023-07-13T01:10:52;9.50;;;9.30;;
673;SDS011;319;48.764;9.174;2023-07-13T01:13:20;9.50;;;9.30;;
673;SDS011;319;48.764;9.174;2023-07-13T01:15:49;9.30;;;9.10;;
673;SDS011;319;48.764;9.174;2023-07-13T01:18:18;9.00;;;8.80;;
673;SDS011;319;48.764;9.174;2023-07-13T01:20:52;8.90;;;8.70;;
673;SDS011;319;48.764;9.174;2023-07-13T01:23:19;9.23;;;9.03;;
673;SDS011;319;48.764;9.174;2023-07-13T01:25:47;8.80;;;8.60;;
673;SDS011;319;48.764;9.174;2023-07-13T01:28:14;9.70;;;9.50;;
673;SDS011;319;48.764;9.174;2023-07-13T01:30:42;9.60;;;9.40;;
673;SDS011;319;48.764;9.174;2023-07-13T01:33:11;8.80;;;8.60;;
673;SDS011;319;48.764;9.174;2023-07-13T01:35:39;9.10;;;8.90;;
673;SDS011;319;48.764;9.174;2023-07-13T01:38:07;9.63;;;9.43;;
673;SDS011;319;48.764;9.174;2023-07-13T01:40:35;9.47;;;9.27;;
673;SDS011;319;48.764;9.174;2023-07-13T01:43:03;9.80;;;9.60;;
673;SDS011;319;48.764;9.174;2023-07-13T01:45:33;8.67;;;8.47;;
673;SDS011;319;48.764;9.174;2023-07-13T01:48:03;9.83;;;9.63;;
673;SDS011;319;48.764;9.174;2023-07-13T01:50:31;9.20;;;9.00;;
673;SDS011;319;48.764;9.174;2023-07-13T01:52:59;9.70;;;9.50;;
673;SDS011;319;48.764;9.174;2023-07-13T01:55:28;10.17;;;9.87;;
673;SDS011;319;48.764;9.174;2023-07-13T01:57:55;9.20;;;9.00;;
673;SDS011;319;48.764;9.174;2023-07-13T02:00:23;7.30;;;7.10;;
673;SDS011;319;48.764;9.174;2023-07-13T02:02:50;9.00;;;8.80;;
673;SDS011;319;48.764;9.174;2023-07-13T02:05:18;4.70;;;4.60;;
673;SDS011;319;48.764;9.174;2023-07-13T02:07:45;9.20;;;9.00;;
673;SDS011;319;48.764;9.174;2023-07-13T02:10:13;10.23;;;9.93;;
673;SDS011;319;48.764;9.174;2023-07-13T02:12:41;9.50;;;9.30;;
673;SDS011;319;48.764;9.174;2023-07-13T02:15:09;5.90;;;5.80;;
673;SDS011;319;48.764;9.174;2023-07-13T02:17:36;7.80;;;7.60;;
673;SDS011;319;48.764;9.174;2023-07-13T02:20:03;7.60;;;7.40;;
673;SDS011;319;48.764;9.174;2023-07-13T02:22:31;7.20;;;7.00;;
673;SDS011;319;48.764;9.174;2023-07-13T02:24:58;4.20;;;4.10;;
673;SDS011;319;48.764;9.174;2023-07-13T02:27:26;5.53;;;5.43;;
673;SDS011;319;48.764;9.174;2023-07-13T02:29:54;2.03;;;2.03;;
673;SDS011;319;48.764;9.174;2023-07-13T02:32:21;0.80;;;0.80;;
673;SDS011;319;48.764;9.174;2023-07-13T02:34:50;0.80;;;0.80;;
673;SDS011;319;48.764;9.174;2023-07-13T02:37:17;0.90;;;0.90;;
673;SDS011;319;48.764;9.174;2023-07-13T02:39:44;0.80;;;0.80;;
673;SDS011;319;48.764;9.174;2023-07-13T02:42:16;0.80;;;0.80;;
673;SDS011;319;48.764;9.174;2023-07-13T02:44:43;0.80;;;0.80;;
673;SDS011;319;48.764;9.174;2023-07-13T02:47:11;0.83;;;0.83;;
673;SDS011;319;48.764;9.174;2023-07-13T02:49:38;0.80;;;0.80;;
673;SDS011;319;48.764;9.174;2023-07-13T02:52:05;0.80;;;0.80;;
673;SDS011;319;48.764;9.174;2023-07-13T02:54:32;15.30;;;14.90;;
673;SDS011;319;48.764;9.174;2023-07-13T02:56:59;8.63;;;8.43;;
673;SDS011;319;48.764;9.174;2023-07-13T02:59:26;14.47;;;14.07;;
673;SDS011;319;48.764;9.174;2023-07-13T03:01:53;12.47;;;12.17;;
673;SDS011;319;48.764;9.174;2023-07-13T03:04:22;1.20;;;1.20;;
673;SDS011;319;48.764;9.174;2023-07-13T03:06:49;0.90;;;0.90;;
673;SDS011;319;48.764;9.174;2023-07-13T03:09:16;0.80;;;0.80;;
673;SDS011;319;48.764;9.174;2023-07-13T03:11:43;0.80;;;0.80;;
673;SDS011;319;48.764;9.174;2023-07-13T03:14:10;0.90;;;0.90;;
673;SDS011;319;48.764;9.174;2023-07-13T03:16:37;0.87;;;0.87;;
673;SDS011;319;48.764;9.174;2023-07-13T03:19:04;0.80;;;0.80;;
673;SDS011;319;48.764;9.174;2023-07-13T03:21:32;0.80;;;0.80;;
673;SDS011;319;48.764;9.174;2023-07-13T03:23:59;0.90;;;0.90;;
673;SDS011;319;48.764;9.174;2023-07-13T03:26:26;0.80;;;0.80;;
673;SDS011;319;48.764;9.174;2023-07-13T03:28:53;0.80;;;0.80;;
673;SDS011;319;48.764;9.174;2023-07-13T03:31:23;0.90;;;0.90;;
673;SDS011;319;48.764;9.174;2023-07-13T03:33:53;0.90;;;0.90;;
673;SDS011;319;48.764;9.174;2023-07-13T03:36:21;0.90;;;0.90;;
673;SDS011;319;48.764;9.174;2023-07-13T03:38:54;0.80;;;0.80;;
673;SDS011;319;48.764;9.174;2023-07-13T03:41:23;0.90;;;0.90;;
673;SDS011;319;48.764;9.174;2023-07-13T03:43:51;0.80;;;0.80;;
673;SDS011;319;48.764;9.174;2023-07-13T03:46:18;0.90;;;0.90;;
673;SDS011;319;48.764;9.174;2023-07-13T03:48:46;0.80;;;0.80;;
673;SDS011;319;48.764;9.174;2023-07-13T03:51:14;0.80;;;0.80;;
673;SDS011;319;48.764;9.174;2023-07-13T03:53:43;0.80;;;0.80;;
673;SDS011;319;48.764;9.174;2023-07-13T03:56:13;0.87;;;0.87;;
673;SDS011;319;48.764;9.174;2023-07-13T03:58:42;0.80;;;0.80;;
673;SDS011;319;48.764;9.174;2023-07-13T04:01:11;0.80;;;0.80;;
673;SDS011;319;48.764;9.174;2023-07-13T04:03:38;0.70;;;0.70;;
673;SDS011;319;48.764;9.174;2023-07-13T04:06:07;0.80;;;0.80;;
673;SDS011;319;48.764;9.174;2023-07-13T04:08:40;0.80;;;0.80;;
673;SDS011;319;48.764;9.174;2023-07-13T04:11:07;0.80;;;0.80;;
673;SDS011;319;48.764;9.174;2023-07-13T04:13:36;0.80;;;0.80;;
673;SDS011;319;48.764;9.174;2023-07-13T04:16:03;0.80;;;0.80;;
673;SDS011;319;48.764;9.174;2023-07-13T04:18:30;0.70;;;0.70;;
673;SDS011;319;48.764;9.174;2023-07-13T04:20:57;0.80;;;0.80;;
673;SDS011;319;48.764;9.174;2023-07-13T04:23:24;0.87;;;0.87;;
673;SDS011;319;48.764;9.174;2023-07-13T04:25:52;0.80;;;0.80;;
673;SDS011;319;48.764;9.174;2023-07-13T04:28:19;0.90;;;0.90;;
673;SDS011;319;48.764;9.174;2023-07-13T04:30:48;0.80;;;0.80;;
673;SDS011;319;48.764;9.174;2023-07-13T04:33:17;0.80;;;0.80;;
673;SDS011;319;48.764;9.174;2023-07-13T04:35:47;0.80;;;0.80;;
673;SDS011;319;48.764;9.174;2023-07-13T04:38:15;0.80;;;0.80;;
673;SDS011;319;48.764;9.174;2023-07-13T04:40:42;0.80;;;0.80;;
673;SDS011;319;48.764;9.174;2023-07-13T04:43:11;0.80;;;0.80;;
673;SDS011;319;48.764;9.174;2023-07-13T04:45:38;0.87;;;0.87;;
673;SDS011;319;48.764;9.174;2023-07-13T04:48:06;0.80;;;0.80;;
673;SDS011;319;48.764;9.174;2023-07-13T04:50:37;0.90;;;0.90;;
673;SDS011;319;48.764;9.174;2023-07-13T04:53:04;0.80;;;0.80;;
673;SDS011;319;48.764;9.174;2023-07-13T04:55:31;0.80;;;0.80;;
673;SDS011;319;48.764;9.174;2023-07-13T04:57:58;0.80;;;0.80;;
673;SDS011;319;48.764;9.174;2023-07-13T05:00:26;0.70;;;0.70;;
673;SDS011;319;48.764;9.174;2023-07-13T05:02:57;0.80;;;0.80;;
673;SDS011;319;48.764;9.174;2023-07-13T05:05:26;0.70;;;0.70;;
673;SDS011;319;48.764;9.174;2023-07-13T05:07:54;0.80;;;0.80;;
673;SDS011;319;48.764;9.174;2023-07-13T05:10:21;0.80;;;0.80;;
673;SDS011;319;48.764;9.174;2023-07-13T05:12:48;0.70;;;0.70;;
673;SDS011;319;48.764;9.174;2023-07-13T05:15:16;0.80;;;0.80;;
673;SDS011;319;48.764;9.174;2023-07-13T05:17:46;0.70;;;0.70;;
673;SDS011;319;48.764;9.174;2023-07-13T05:20:13;0.80;;;0.80;;
673;SDS011;319;48.764;9.174;2023-07-13T05:22:41;0.80;;;0.80;;
673;SDS011;319;48.764;9.174;2023-07-13T05:25:09;0.80;;;0.80;;
673;SDS011;319;48.764;9.174;2023-07-13T05:27:36;1.50;;;1.50;;
673;SDS011;319;48.764;9.174;2023-07-13T05:30:03;2.20;;;2.20;;
673;SDS011;319;48.764;9.174;2023-07-13T05:32:31;0.90;;;0.90;;
673;SDS011;319;48.764;9.174;2023-07-13T05:34:58;2.87;;;2.77;;
673;SDS011;319;48.764;9.174;2023-07-13T05:37:25;0.80;;;0.80;;
673;SDS011;319;48.764;9.174;2023-07-13T05:39:53;0.90;;;0.90;;
673;SDS011;319;48.764;9.174;2023-07-13T05:42:20;0.80;;;0.80;;
673;SDS011;319;48.764;9.174;2023-07-13T05:44:47;0.80;;;0.80;;
673;SDS011;319;48.764;9.174;2023-07-13T05:47:14;0.80;;;0.80;;
673;SDS011;319;48.764;9.174;2023-07-13T05:49:41;1.13;;;1.13;;
673;SDS011;319;48.764;9.174;2023-07-13T05:52:08;0.80;;;0.80;;
673;SDS011;319;48.764;9.174;2023-07-13T05:54:35;0.83;;;0.83;;
673;SDS011;319;48.764;9.174;2023-07-13T05:57:04;0.80;;;0.80;;
673;SDS011;319;48.764;9.174;2023-07-13T05:59:31;0.80;;;0.80;;
673;SDS011;319;48.764;9.174;2023-07-13T06:01:58;0.70;;;0.70;;
673;SDS011;319;48.764;9.174;2023-07-13T06:04:25;0.80;;;0.80;;
673;SDS011;319;48.764;9.174;2023-07-13T06:06:52;0.80;;;0.80;;
673;SDS011;319;48.764;9.174;2023-07-13T06:09:19;0.70;;;0.70;;
673;SDS011;319;48.764;9.174;2023-07-13T06:11:49;0.70;;;0.70;;
673;SDS011;319;48.764;9.174;2023-07-13T06:14:17;4.97;;;4.77;;
673;SDS011;319;48.764;9.174;2023-07-13T06:16:45;1.80;;;1.80;;
673;SDS011;319;48.764;9.174;2023-07-13T06:19:12;0.70;;;0.70;;
673;SDS011;319;48.764;9.174;2023-07-13T06:21:39;2.57;;;2.47;;
673;SDS011;319;48.764;9.174;2023-07-13T06:24:08;1.77;;;1.77;;
673;SDS011;319;48.764;9.174;2023-07-13T06:26:36;12.67;;;12.37;;
673;SDS011;319;48.764;9.174;2023-07-13T06:29:03;4.90;;;4.80;;
673;SDS011;319;48.764;9.174;2023-07-13T06:31:31;10.70;;;10.40;;
673;SDS011;319;48.764;9.174;2023-07-13T06:33:58;9.50;;;9.30;;
673;SDS011;319;48.764;9.174;2023-07-13T06:36:25;0.70;;;0.70;;
673;SDS011;319;48.764;9.174;2023-07-13T06:38:53;2.45;;;2.35;;
673;SDS011;319;48.764;9.174;2023-07-13T06:41:20;0.70;;;0.70;;
673;SDS011;319;48.764;9.174;2023-07-13T06:43:47;4.75;;;4.65;;
673;SDS011;319;48.764;9.174;2023-07-13T06:46:20;0.80;;;0.80;;
673;SDS011;319;48.764;9.174;2023-07-13T06:48:49;0.70;;;0.70;;
673;SDS011;319;48.764;9.174;2023-07-13T06:51:16;0.90;;;0.90;;
673;SDS011;319;48.764;9.174;2023-07-13T06:53:43;1.70;;;1.70;;
673;SDS011;319;48.764;9.174;2023-07-13T06:56:12;11.93;;;11.63;;
673;SDS011;319;48.764;9.174;2023-07-13T06:58:39;7.60;;;7.40;;
673;SDS011;319;48.764;9.174;2023-07-13T07:01:06;10.80;;;10.50;;
673;SDS011;319;48.764;9.174;2023-07-13T07:03:33;8.43;;;8.23;;
673;SDS011;319;48.764;9.174;2023-07-13T07:06:03;7.28;;;7.07;;
673;SDS011;319;48.764;9.174;2023-07-13T07:08:40;7.10;;;6.90;;
673;SDS011;319;48.764;9.174;2023-07-13T07:11:11;7.30;;;7.10;;
673;SDS011;319;48.764;9.174;2023-07-13T07:13:39;6.20;;;6.10;;
673;SDS011;319;48.764;9.174;2023-07-13T07:16:06;4.88;;;4.78;;
673;SDS011;319;48.764;9.174;2023-07-13T07:18:33;6.53;;;6.32;;
673;SDS011;319;48.764;9.174;2023-07-13T07:21:02;1.08;;;1.08;;
673;SDS011;319;48.764;9.174;2023-07-13T07:23:30;4.68;;;4.57;;
673;SDS011;319;48.764;9.174;2023-07-13T07:25:58;0.70;;;0.70;;
673;SDS011;319;48.764;9.174;2023-07-13T07:28:25;0.80;;;0.80;;
673;SDS011;319;48.764;9.174;2023-07-13T07:30:53;0.80;;;0.80;;
673;SDS011;319;48.764;9.174;2023-07-13T07:33:21;0.80;;;0.80;;
673;SDS011;319;48.764;9.174;2023-07-13T07:35:49;0.73;;;0.73;;
673;SDS011;319;48.764;9.174;2023-07-13T07:38:17;3.10;;;3.00;;
673;SDS011;319;48.764;9.174;2023-07-13T07:40:44;4.45;;;4.35;;
673;SDS011;319;48.764;9.174;2023-07-13T07:43:12;5.20;;;5.10;;
673;SDS011;319;48.764;9.174;2023-07-13T07:45:39;9.23;;;9.02;;
673;SDS011;319;48.764;9.174;2023-07-13T07:48:06;5.70;;;5.60;;
673;SDS011;319;48.764;9.174;2023-07-13T07:50:34;5.15;;;5.05;;
673;SDS011;319;48.764;9.174;2023-07-13T07:53:04;5.90;;;5.80;;
673;SDS011;319;48.764;9.174;2023-07-13T07:55:34;6.65;;;6.45;;
673;SDS011;319;48.764;9.174;2023-07-13T07:58:01;4.93;;;4.82;;
673;SDS011;319;48.764;9.174;2023-07-13T08:00:28;4.50;;;4.40;;
673;SDS011;319;48.764;9.174;2023-07-13T08:02:56;6.60;;;6.40;;
673;SDS011;319;48.764;9.174;2023-07-13T08:05:23;7.22;;;7.03;;
673;SDS011;319;48.764;9.174;2023-07-13T08:07:51;4.72;;;4.63;;
673;SDS011;319;48.764;9.174;2023-07-13T08:10:18;4.60;;;4.50;;
673;SDS011;319;48.764;9.174;2023-07-13T08:12:48;1.80;;;1.80;;
673;SDS011;319;48.764;9.174;2023-07-13T08:15:16;3.22;;;3.13;;
673;SDS011;319;48.764;9.174;2023-07-13T08:17:45;2.25;;;2.25;;
673;SDS011;319;48.764;9.174;2023-07-13T08:20:15;5.25;;;5.15;;
673;SDS011;319;48.764;9.174;2023-07-13T08:22:43;2.30;;;2.30;;
673;SDS011;319;48.764;9.174;2023-07-13T08:25:11;1.40;;;1.40;;
673;SDS011;319;48.764;9.174;2023-07-13T08:27:38;7.20;;;7.00;;
673;SDS011;319;48.764;9.174;2023-07-13T08:30:07;5.40;;;5.30;;
673;SDS011;319;48.764;9.174;2023-07-13T08:32:35;5.80;;;5.70;;
673;SDS011;319;48.764;9.174;2023-07-13T08:35:03;8.38;;;8.18;;
673;SDS011;319;48.764;9.174;2023-07-13T08:37:30;9.15;;;8.95;;
673;SDS011;319;48.764;9.174;2023-07-13T08:39:58;7.10;;;6.90;;
673;SDS011;319;48.764;9.174;2023-07-13T08:42:32;7.88;;;7.68;;
673;SDS011;319;48.764;9.174;2023-07-13T08:45:11;9.57;;;9.38;;
673;SDS011;319;48.764;9.174;2023-07-13T08:47:47;8.93;;;8.73;;
673;SDS011;319;48.764;9.174;2023-07-13T08:50:19;7.38;;;7.18;;
673;SDS011;319;48.764;9.174;2023-07-13T08:52:51;6.88;;;6.68;;
673;SDS011;319;48.764;9.174;2023-07-13T08:55:21;7.30;;;7.10;;
673;SDS011;319;48.764;9.174;2023-07-13T08:57:55;9.65;;;9.45;;
673;SDS011;319;48.764;9.174;2023-07-13T09:00:34;12.15;;;11.85;;
673;SDS011;319;48.764;9.174;2023-07-13T09:03:12;13.25;;;12.95;;
673;SDS011;319;48.764;9.174;2023-07-13T09:05:47;11.80;;;11.50;;
673;SDS011;319;48.764;9.174;2023-07-13T09:08:31;9.93;;;9.68;;
673;SDS011;319;48.764;9.174;2023-07-13T09:11:16;10.20;;;9.90;;
673;SDS011;319;48.764;9.174;2023-07-13T09:13:54;10.55;;;10.25;;
673;SDS011;319;48.764;9.174;2023-07-13T09:26:48;13.60;;;13.20;;
673;SDS011;319;48.764;9.174;2023-07-13T09:29:19;8.90;;;8.70;;
673;SDS011;319;48.764;9.174;2023-07-13T09:31:52;2.40;;;2.40;;
673;SDS011;319;48.764;9.174;2023-07-13T09:34:27;8.80;;;8.60;;
673;SDS011;319;48.764;9.174;2023-07-13T09:36:55;7.87;;;7.67;;
673;SDS011;319;48.764;9.174;2023-07-13T09:39:40;13.60;;;13.20;;
673;SDS011;319;48.764;9.174;2023-07-13T09:42:14;2.57;;;2.50;;
673;SDS011;319;48.764;9.174;2023-07-13T09:44:50;7.67;;;7.47;;
673;SDS011;319;48.764;9.174;2023-07-13T09:47:19;2.77;;;2.67;;
673;SDS011;319;48.764;9.174;2023-07-13T09:49:53;9.63;;;9.43;;
673;SDS011;319;48.764;9.174;2023-07-13T09:52:23;14.13;;;13.73;;
673;SDS011;319;48.764;9.174;2023-07-13T09:54:52;13.37;;;13.00;;
673;SDS011;319;48.764;9.174;2023-07-13T09:57:27;0.80;;;0.80;;
673;SDS011;319;48.764;9.174;2023-07-13T10:00:19;0.90;;;0.90;;
673;SDS011;319;48.764;9.174;2023-07-13T10:02:57;0.70;;;0.70;;
673;SDS011;319;48.764;9.174;2023-07-13T10:05:26;1.73;;;1.73;;
673;SDS011;319;48.764;9.174;2023-07-13T10:07:53;0.90;;;0.90;;
673;SDS011;319;48.764;9.174;2023-07-13T10:10:22;0.83;;;0.83;;
673;SDS011;319;48.764;9.174;2023-07-13T10:12:51;1.20;;;1.20;;
673;SDS011;319;48.764;9.174;2023-07-13T10:15:19;4.90;;;4.80;;
673;SDS011;319;48.764;9.174;2023-07-13T10:17:48;8.10;;;7.90;;
673;SDS011;319;48.764;9.174;2023-07-13T10:20:16;8.17;;;7.97;;
673;SDS011;319;48.764;9.174;2023-07-13T10:22:46;1.30;;;1.30;;
673;SDS011;319;48.764;9.174;2023-07-13T10:25:19;1.10;;;1.10;;
673;SDS011;319;48.764;9.174;2023-07-13T10:27:49;7.60;;;7.40;;
673;SDS011;319;48.764;9.174;2023-07-13T10:30:20;9.33;;;9.10;;
673;SDS011;319;48.764;9.174;2023-07-13T10:32:53;9.53;;;9.33;;
673;SDS011;319;48.764;9.174;2023-07-13T10:35:22;9.00;;;8.80;;
673;SDS011;319;48.764;9.174;2023-07-13T10:38:11;11.07;;;10.77;;
673;SDS011;319;48.764;9.174;2023-07-13T10:40:41;1.50;;;1.50;;
673;SDS011;319;48.764;9.174;2023-07-13T10:43:16;0.90;;;0.90;;
673;SDS011;319;48.764;9.174;2023-07-13T10:45:46;0.90;;;0.90;;
673;SDS011;319;48.764;9.174;2023-07-13T10:48:15;0.90;;;0.90;;
673;SDS011;319;48.764;9.174;2023-07-13T10:50:44;0.80;;;0.80;;
673;SDS011;319;48.764;9.174;2023-07-13T10:53:19;0.80;;;0.80;;
673;SDS011;319;48.764;9.174;2023-07-13T10:55:58;0.80;;;0.80;;
673;SDS011;319;48.764;9.174;2023-07-13T10:58:31;3.87;;;3.77;;
673;SDS011;319;48.764;9.174;2023-07-13T11:01:02;7.37;;;7.17;;
673;SDS011;319;48.764;9.174;2023-07-13T11:03:34;11.83;;;11.53;;
673;SDS011;319;48.764;9.174;2023-07-13T11:06:05;8.87;;;8.67;;
673;SDS011;319;48.764;9.174;2023-07-13T11:08:35;11.40;;;11.10;;
673;SDS011;319;48.764;9.174;2023-07-13T11:11:05;12.27;;;11.97;;
673;SDS011;319;48.764;9.174;2023-07-13T11:14:01;13.07;;;12.77;;
673;SDS011;319;48.764;9.174;2023-07-13T11:16:37;12.40;;;12.10;;
673;SDS011;319;48.764;9.174;2023-07-13T11:19:27;12.17;;;11.87;;
673;SDS011;319;48.764;9.174;2023-07-13T11:22:13;14.00;;;13.60;;
673;SDS011;319;48.764;9.174;2023-07-13T11:24:58;11.73;;;11.43;;
673;SDS011;319;48.764;9.174;2023-07-13T11:27:38;11.20;;;10.90;;
673;SDS011;319;48.764;9.174;2023-07-13T11:30:17;10.23;;;9.93;;
673;SDS011;319;48.764;9.174;2023-07-13T11:32:51;9.60;;;9.40;;
673;SDS011;319;48.764;9.174;2023-07-13T11:35:31;6.50;;;6.30;;
673;SDS011;319;48.764;9.174;2023-07-13T11:38:01;2.33;;;2.27;;
673;SDS011;319;48.764;9.174;2023-07-13T11:40:28;0.90;;;0.90;;
673;SDS011;319;48.764;9.174;2023-07-13T11:42:59;6.57;;;6.37;;
673;SDS011;319;48.764;9.174;2023-07-13T11:45:28;12.80;;;12.50;;
673;SDS011;319;48.764;9.174;2023-07-13T11:47:57;13.97;;;13.57;;
673;SDS011;319;48.764;9.174;2023-07-13T11:50:25;10.57;;;10.27;;
673;SDS011;319;48.764;9.174;2023-07-13T11:52:52;12.33;;;12.03;;
673;SDS011;319;48.764;9.174;2023-07-13T11:55:22;12.80;;;12.50;;
673;SDS011;319;48.764;9.174;2023-07-13T11:57:51;10.63;;;10.33;;
673;SDS011;319;48.764;9.174;2023-07-13T12:00:21;11.70;;;11.40;;
673;SDS011;319;48.764;9.174;2023-07-13T12:02:55;10.80;;;10.50;;
673;SDS011;319;48.764;9.174;2023-07-13T12:05:27;12.10;;;11.80;;
673;SDS011;319;48.764;9.174;2023-07-13T12:07:56;12.93;;;12.63;;
673;SDS011;319;48.764;9.174;2023-07-13T12:10:24;11.23;;;10.93;;
673;SDS011;319;48.764;9.174;2023-07-13T12:12:55;11.10;;;10.80;;
673;SDS011;319;48.764;9.174;2023-07-13T12:15:26;11.97;;;11.67;;
673;SDS011;319;48.764;9.174;2023-07-13T12:17:58;11.20;;;10.90;;
673;SDS011;319;48.764;9.174;2023-07-13T12:20:26;12.40;;;12.10;;
673;SDS011;319;48.764;9.174;2023-07-13T12:22:55;9.40;;;9.20;;
673;SDS011;319;48.764;9.174;2023-07-13T12:25:30;8.20;;;8.00;;
673;SDS011;319;48.764;9.174;2023-07-13T12:27:58;1.90;;;1.90;;
673;SDS011;319;48.764;9.174;2023-07-13T12:34:00;11.57;;;11.27;;
673;SDS011;319;48.764;9.174;2023-07-13T12:36:29;12.60;;;12.30;;
673;SDS011;319;48.764;9.174;2023-07-13T12:39:00;10.50;;;10.20;;
673;SDS011;319;48.764;9.174;2023-07-13T12:41:39;13.77;;;13.37;;
673;SDS011;319;48.764;9.174;2023-07-13T12:44:12;13.50;;;13.10;;
673;SDS011;319;48.764;9.174;2023-07-13T12:46:50;12.93;;;12.63;;
673;SDS011;319;48.764;9.174;2023-07-13T12:49:23;12.40;;;12.10;;
673;SDS011;319;48.764;9.174;2023-07-13T12:51:57;12.60;;;12.30;;
673;SDS011;319;48.764;9.174;2023-07-13T12:54:26;12.90;;;12.60;;
673;SDS011;319;48.764;9.174;2023-07-13T12:56:54;2.43;;;2.43;;
673;SDS011;319;48.764;9.174;2023-07-13T12:59:24;4.17;;;4.07;;
673;SDS011;319;48.764;9.174;2023-07-13T13:01:55;12.07;;;11.77;;
673;SDS011;319;48.764;9.174;2023-07-13T13:04:24;13.53;;;13.13;;
673;SDS011;319;48.764;9.174;2023-07-13T13:07:00;14.03;;;13.63;;
673;SDS011;319;48.764;9.174;2023-07-13T13:09:29;10.80;;;10.50;;
673;SDS011;319;48.764;9.174;2023-07-13T13:11:55;10.67;;;10.37;;
673;SDS011;319;48.764;9.174;2023-07-13T13:14:23;10.40;;;10.10;;
673;SDS011;319;48.764;9.174;2023-07-13T13:16:50;12.67;;;12.37;;
673;SDS011;319;48.764;9.174;2023-07-13T13:19:20;9.53;;;9.33;;
673;SDS011;319;48.764;9.174;2023-07-13T13:21:52;10.87;;;10.57;;
673;SDS011;319;48.764;9.174;2023-07-13T13:24:22;12.00;;;11.70;;
673;SDS011;319;48.764;9.174;2023-07-13T13:26:51;11.10;;;10.80;;
673;SDS011;319;48.764;9.174;2023-07-13T13:29:23;9.73;;;9.53;;
673;SDS011;319;48.764;9.174;2023-07-13T13:31:51;12.37;;;12.07;;
673;SDS011;319;48.764;9.174;2023-07-13T13:34:18;10.60;;;10.30;;
673;SDS011;319;48.764;9.174;2023-07-13T13:36:50;12.07;;;11.77;;
673;SDS011;319;48.764;9.174;2023-07-13T13:39:19;9.60;;;9.40;;
673;SDS011;319;48.764;9.174;2023-07-13T13:41:49;12.53;;;12.23;;
673;SDS011;319;48.764;9.174;2023-07-13T13:44:18;12.60;;;12.30;;
673;SDS011;319;48.764;9.174;2023-07-13T13:46:50;11.57;;;11.27;;
673;SDS011;319;48.764;9.174;2023-07-13T13:49:21;10.33;;;10.03;;
673;SDS011;319;48.764;9.174;2023-07-13T13:51:52;12.40;;;12.10;;
673;SDS011;319;48.764;9.174;2023-07-13T13:54:23;5.53;;;5.43;;
673;SDS011;319;48.764;9.174;2023-07-13T13:56:56;11.97;;;11.67;;
673;SDS011;319;48.764;9.174;2023-07-13T13:59:24;11.40;;;11.10;;
673;SDS011;319;48.764;9.174;2023-07-13T14:01:51;11.70;;;11.40;;
673;SDS011;319;48.764;9.174;2023-07-13T14:04:19;12.90;;;12.60;;
673;SDS011;319;48.764;9.174;2023-07-13T14:06:47;12.53;;;12.23;;
673;SDS011;319;48.764;9.174;2023-07-13T14:09:18;13.87;;;13.47;;
673;SDS011;319;48.764;9.174;2023-07-13T14:11:45;14.20;;;13.80;;
673;SDS011;319;48.764;9.174;2023-07-13T14:14:14;10.23;;;9.93;;
673;SDS011;319;48.764;9.174;2023-07-13T14:16:43;12.73;;;12.43;;
673;SDS011;319;48.764;9.174;2023-07-13T14:19:12;13.63;;;13.23;;
673;SDS011;319;48.764;9.174;2023-07-13T14:21:40;4.23;;;4.13;;
673;SDS011;319;48.764;9.174;2023-07-13T14:24:07;10.07;;;9.80;;
673;SDS011;319;48.764;9.174;2023-07-13T14:26:37;13.10;;;12.80;;
673;SDS011;319;48.764;9.174;2023-07-13T14:29:11;13.30;;;12.97;;
673;SDS011;319;48.764;9.174;2023-07-13T14:31:40;14.00;;;13.60;;
673;SDS011;319;48.764;9.174;2023-07-13T14:34:07;10.57;;;10.27;;
673;SDS011;319;48.764;9.174;2023-07-13T14:36:39;13.20;;;12.90;;
673;SDS011;319;48.764;9.174;2023-07-13T14:39:12;11.30;;;11.00;;
673;SDS011;319;48.764;9.174;2023-07-13T14:41:44;13.80;;;13.40;;
673;SDS011;319;48.764;9.174;2023-07-13T14:44:11;12.70;;;12.40;;
673;SDS011;319;48.764;9.174;2023-07-13T14:46:39;13.73;;;13.33;;
673;SDS011;319;48.764;9.174;2023-07-13T14:49:09;13.23;;;12.93;;
673;SDS011;319;48.764;9.174;2023-07-13T14:51:44;10.50;;;10.20;;
673;SDS011;319;48.764;9.174;2023-07-13T14:54:11;11.80;;;11.50;;
673;SDS011;319;48.764;9.174;2023-07-13T14:56:38;11.97;;;11.67;;
673;SDS011;319;48.764;9.174;2023-07-13T14:59:06;12.77;;;12.47;;
673;SDS011;319;48.764;9.174;2023-07-13T15:01:33;9.67;;;9.47;;
673;SDS011;319;48.764;9.174;2023-07-13T15:04:01;3.23;;;3.13;;
673;SDS011;319;48.764;9.174;2023-07-13T15:06:29;14.87;;;14.47;;
673;SDS011;319;48.764;9.174;2023-07-13T15:08:56;10.47;;;10.17;;
673;SDS011;319;48.764;9.174;2023-07-13T15:11:24;10.40;;;10.10;;
673;SDS011;319;48.764;9.174;2023-07-13T15:13:51;13.00;;;12.70;;
673;SDS011;319;48.764;9.174;2023-07-13T15:16:21;12.87;;;12.57;;
673;SDS011;319;48.764;9.174;2023-07-13T15:18:49;11.03;;;10.73;;
673;SDS011;319;48.764;9.174;2023-07-13T15:21:20;12.90;;;12.60;;
673;SDS011;319;48.764;9.174;2023-07-13T15:23:51;14.03;;;13.63;;
673;SDS011;319;48.764;9.174;2023-07-13T15:26:34;12.20;;;11.90;;
673;SDS011;319;48.764;9.174;2023-07-13T15:29:01;10.20;;;9.90;;
673;SDS011;319;48.764;9.174;2023-07-13T15:31:31;13.60;;;13.20;;
673;SDS011;319;48.764;9.174;2023-07-13T15:33:59;0.70;;;0.70;;
673;SDS011;319;48.764;9.174;2023-07-13T15:36:26;0.70;;;0.70;;
673;SDS011;319;48.764;9.174;2023-07-13T15:38:54;4.20;;;4.10;;
673;SDS011;319;48.764;9.174;2023-07-13T15:41:23;2.63;;;2.53;;
673;SDS011;319;48.764;9.174;2023-07-13T15:43:52;5.90;;;5.80;;
673;SDS011;319;48.764;9.174;2023-07-13T15:46:22;5.67;;;5.57;;
673;SDS011;319;48.764;9.174;2023-07-13T15:48:52;9.07;;;8.87;;
673;SDS011;319;48.764;9.174;2023-07-13T15:51:20;11.50;;;11.20;;
673;SDS011;319;48.764;9.174;2023-07-13T15:53:52;12.67;;;12.37;;
673;SDS011;319;48.764;9.174;2023-07-13T15:56:27;13.50;;;13.10;;
673;SDS011;319;48.764;9.174;2023-07-13T15:59:00;12.93;;;12.63;;
673;SDS011;319;48.764;9.174;2023-07-13T16:01:28;4.17;;;4.07;;
673;SDS011;319;48.764;9.174;2023-07-13T16:03:57;12.00;;;11.70;;
673;SDS011;319;48.764;9.174;2023-07-13T16:06:26;12.87;;;12.57;;